Time;durP1;ratioP1;P1;durP2;ratioP2;P2;SDS_P1;SDS_P2;PMS_P1;PMS_P2;Temp;Humidity;BMP_temperature;BMP_pressure;BME280_temperature;BME280_humidity;BME280_pressure;Samples;Min_cycle;Max_cycle;Signal;HPM_P1;HPM_P2
2021/12/10 00:01:07;;;;;;;37.95;20.08;;;;;;;;;;5036461;28;20123;-67
2021/12/10 00:03:42;;;;;;;39.55;19.75;;;;;;;;;;5036025;28;20045;-67
2021/12/10 00:06:16;;;;;;;43.50;19.63;;;;;;;;;;5052162;28;20083;-67
2021/12/10 00:08:46;;;;;;;41.05;19.35;;;;;;;;;;5036473;28;20043;-67
2021/12/10 00:11:15;;;;;;;42.88;18.98;;;;;;;;;;5054207;28;20087;-67
2021/12/10 00:13:44;;;;;;;38.40;19.23;;;;;;;;;;5035734;28;20120;-67
2021/12/10 00:16:10;;;;;;;43.42;20.08;;;;;;;;;;5036038;28;20081;-67
2021/12/10 00:18:40;;;;;;;38.42;19.60;;;;;;;;;;5053995;28;20717;-67
2021/12/10 00:21:06;;;;;;;41.65;20.23;;;;;;;;;;5053437;28;20048;-67
2021/12/10 00:23:33;;;;;;;39.28;19.83;;;;;;;;;;5053533;28;20084;-67
2021/12/10 00:26:00;;;;;;;42.58;19.17;;;;;;;;;;5053900;28;20112;-67
2021/12/10 00:28:28;;;;;;;40.92;19.27;;;;;;;;;;5053168;28;20083;-67
2021/12/10 00:31:05;;;;;;;41.08;18.95;;;;;;;;;;5053452;28;20045;-67
2021/12/10 00:33:35;;;;;;;38.25;18.75;;;;;;;;;;5035439;28;20049;-67
2021/12/10 00:36:01;;;;;;;39.47;17.77;;;;;;;;;;5035297;28;20045;-67
2021/12/10 00:38:27;;;;;;;40.67;18.77;;;;;;;;;;5053465;28;20044;-67
2021/12/10 00:40:53;;;;;;;36.67;17.00;;;;;;;;;;5053641;28;20040;-67
2021/12/10 00:43:20;;;;;;;40.53;18.13;;;;;;;;;;5052833;28;20037;-67
2021/12/10 00:45:46;;;;;;;34.50;18.23;;;;;;;;;;5053700;28;20040;-67
2021/12/10 00:48:12;;;;;;;39.58;18.50;;;;;;;;;;5053419;28;20480;-67
2021/12/10 00:50:41;;;;;;;33.75;17.42;;;;;;;;;;5052366;28;20033;-67
2021/12/10 00:53:07;;;;;;;37.88;17.42;;;;;;;;;;5053291;28;20048;-67
2021/12/10 00:55:35;;;;;;;29.20;16.17;;;;;;;;;;5053335;28;20171;-67
2021/12/10 00:58:01;;;;;;;37.60;17.52;;;;;;;;;;5034542;28;20438;-67
2021/12/10 01:00:30;;;;;;;39.70;18.05;;;;;;;;;;5053314;28;20090;-67
2021/12/10 01:02:56;;;;;;;29.30;16.15;;;;;;;;;;5053112;28;20250;-67
2021/12/10 01:05:23;;;;;;;33.40;15.55;;;;;;;;;;5052661;28;20056;-67
2021/12/10 01:07:49;;;;;;;34.63;16.00;;;;;;;;;;5053208;28;20045;-67
2021/12/10 01:10:19;;;;;;;30.35;15.50;;;;;;;;;;5052865;28;20044;-67
2021/12/10 01:12:47;;;;;;;29.73;15.50;;;;;;;;;;5052296;28;20037;-67
2021/12/10 01:26:55;;;;;;;30.35;13.93;;;;;;;;;;4998163;28;20133;-67
2021/12/10 01:29:23;;;;;;;22.00;12.77;;;;;;;;;;5032906;28;20063;-67
2021/12/10 01:31:49;;;;;;;33.15;13.82;;;;;;;;;;5032622;28;20083;-67
2021/12/10 01:34:15;;;;;;;27.52;13.00;;;;;;;;;;5031928;28;20045;-67
2021/12/10 01:36:42;;;;;;;31.08;14.35;;;;;;;;;;5014954;28;20042;-67
2021/12/10 01:39:09;;;;;;;26.50;13.98;;;;;;;;;;5032366;28;20087;-67
2021/12/10 01:41:39;;;;;;;30.40;13.70;;;;;;;;;;5031499;28;20040;-67
2021/12/10 01:44:14;;;;;;;26.65;12.77;;;;;;;;;;5032382;28;20041;-67
2021/12/10 01:46:41;;;;;;;28.67;12.55;;;;;;;;;;5014453;28;20045;-67
2021/12/10 01:49:08;;;;;;;27.77;13.27;;;;;;;;;;5031679;28;20758;-67
2021/12/10 01:51:36;;;;;;;23.67;12.00;;;;;;;;;;5014595;28;20401;-67
2021/12/10 01:54:05;;;;;;;29.35;12.52;;;;;;;;;;5014727;28;20149;-67
2021/12/10 01:56:33;;;;;;;22.67;12.35;;;;;;;;;;5013839;28;20052;-67
2021/12/10 01:59:00;;;;;;;26.00;12.10;;;;;;;;;;5014640;28;20557;-67
2021/12/10 02:01:31;;;;;;;23.02;11.95;;;;;;;;;;5032165;28;20080;-67
2021/12/10 02:03:59;;;;;;;26.48;12.38;;;;;;;;;;5031498;28;20068;-67
2021/12/10 02:06:25;;;;;;;27.80;12.60;;;;;;;;;;5032131;28;20084;-67
2021/12/10 02:08:51;;;;;;;25.90;13.20;;;;;;;;;;5032166;28;20044;-67
2021/12/10 02:11:18;;;;;;;22.25;13.18;;;;;;;;;;5031429;28;20364;-67
2021/12/10 02:13:44;;;;;;;27.73;13.30;;;;;;;;;;5032076;28;20041;-67
2021/12/10 02:16:10;;;;;;;23.88;12.57;;;;;;;;;;5032042;28;20514;-67
2021/12/10 02:18:36;;;;;;;25.45;13.63;;;;;;;;;;5031390;28;20396;-67
2021/12/10 02:21:03;;;;;;;30.33;13.98;;;;;;;;;;5031785;28;20041;-67
2021/12/10 02:23:40;;;;;;;34.30;14.32;;;;;;;;;;5023902;28;20410;-67
2021/12/10 02:26:08;;;;;;;26.52;13.82;;;;;;;;;;5051109;28;20049;-67
2021/12/10 02:28:35;;;;;;;23.75;13.20;;;;;;;;;;5051177;28;20128;-67
2021/12/10 02:31:01;;;;;;;31.25;13.32;;;;;;;;;;5051585;28;20417;-67
2021/12/10 02:33:30;;;;;;;26.42;12.82;;;;;;;;;;5050599;28;20124;-67
2021/12/10 02:35:56;;;;;;;29.52;14.75;;;;;;;;;;5033411;28;20041;-67
2021/12/10 02:38:22;;;;;;;24.05;13.02;;;;;;;;;;5051627;28;20068;-67
2021/12/10 02:40:49;;;;;;;23.17;12.95;;;;;;;;;;5032828;28;20785;-67
2021/12/10 02:43:17;;;;;;;23.92;13.13;;;;;;;;;;5033522;28;20484;-67
2021/12/10 02:45:45;;;;;;;28.30;12.52;;;;;;;;;;5051374;28;20037;-67
2021/12/10 02:48:11;;;;;;;25.25;13.25;;;;;;;;;;5032626;28;20051;-67
2021/12/10 02:50:38;;;;;;;25.88;13.05;;;;;;;;;;5033254;28;20045;-67
2021/12/10 02:53:06;;;;;;;27.95;12.05;;;;;;;;;;5051090;28;20044;-67
2021/12/10 02:55:33;;;;;;;28.15;12.45;;;;;;;;;;5032531;28;20048;-67
2021/12/10 02:58:02;;;;;;;27.15;11.85;;;;;;;;;;5051107;28;20037;-67
2021/12/10 03:00:32;;;;;;;26.85;11.82;;;;;;;;;;5033304;28;20562;-67
2021/12/10 03:02:58;;;;;;;21.80;12.45;;;;;;;;;;5050619;28;20029;-67
2021/12/10 03:05:24;;;;;;;23.55;12.35;;;;;;;;;;5033568;28;20080;-67
2021/12/10 03:07:52;;;;;;;25.95;13.13;;;;;;;;;;5033278;28;20064;-67
2021/12/10 03:10:20;;;;;;;25.02;12.48;;;;;;;;;;5050791;28;20045;-67
2021/12/10 03:12:47;;;;;;;28.20;12.27;;;;;;;;;;5051475;28;20452;-67
2021/12/10 03:15:13;;;;;;;29.42;12.40;;;;;;;;;;5051202;28;20056;-67
2021/12/10 03:17:39;;;;;;;24.10;12.80;;;;;;;;;;5050292;28;20041;-67
2021/12/10 03:20:08;;;;;;;23.52;12.18;;;;;;;;;;5051320;28;20502;-67
2021/12/10 03:22:34;;;;;;;25.00;13.38;;;;;;;;;;5050998;28;20045;-67
2021/12/10 03:25:00;;;;;;;24.17;13.63;;;;;;;;;;5050207;28;20052;-67
2021/12/10 03:27:26;;;;;;;28.30;13.80;;;;;;;;;;5033128;28;20120;-67
2021/12/10 03:29:54;;;;;;;23.05;14.07;;;;;;;;;;5032969;28;20077;-67
2021/12/10 03:32:22;;;;;;;27.50;14.65;;;;;;;;;;5032261;28;20064;-67
2021/12/10 03:34:49;;;;;;;26.45;15.05;;;;;;;;;;5050955;28;20072;-67
2021/12/10 03:37:18;;;;;;;29.48;15.25;;;;;;;;;;5051014;28;20068;-67
2021/12/10 03:39:44;;;;;;;20.02;12.63;;;;;;;;;;5032619;28;20044;-67
2021/12/10 03:42:10;;;;;;;21.08;10.48;;;;;;;;;;5054638;28;20029;-67
2021/12/10 03:44:37;;;;;;;23.45;11.35;;;;;;;;;;5054663;28;20380;-67
2021/12/10 03:47:04;;;;;;;20.08;11.55;;;;;;;;;;5035805;28;20497;-67
2021/12/10 03:49:30;;;;;;;19.42;11.63;;;;;;;;;;5054623;28;20049;-67
2021/12/10 03:51:56;;;;;;;20.58;12.23;;;;;;;;;;5054588;28;20041;-67
2021/12/10 03:54:23;;;;;;;20.98;12.25;;;;;;;;;;5035665;28;20051;-67
2021/12/10 03:56:49;;;;;;;24.73;12.48;;;;;;;;;;5054342;28;20479;-67
2021/12/10 03:59:17;;;;;;;21.40;12.30;;;;;;;;;;5036493;28;20654;-67
2021/12/10 04:01:45;;;;;;;21.90;12.85;;;;;;;;;;5053879;28;20131;-67
2021/12/10 04:04:14;;;;;;;26.30;12.50;;;;;;;;;;5054469;28;20040;-67
2021/12/10 04:06:40;;;;;;;24.45;12.52;;;;;;;;;;5054243;28;20051;-67
2021/12/10 04:09:07;;;;;;;24.65;13.32;;;;;;;;;;5053703;28;20045;-67
2021/12/10 04:11:33;;;;;;;26.73;13.52;;;;;;;;;;5053990;28;20080;-67
2021/12/10 04:14:00;;;;;;;23.73;13.70;;;;;;;;;;5036165;28;20040;-67
2021/12/10 04:16:27;;;;;;;23.02;13.60;;;;;;;;;;5035166;28;20067;-67
2021/12/10 04:18:54;;;;;;;24.17;14.30;;;;;;;;;;5036306;28;20052;-67
2021/12/10 04:21:20;;;;;;;29.15;14.27;;;;;;;;;;5035903;28;20033;-67
2021/12/10 04:23:47;;;;;;;23.75;13.95;;;;;;;;;;5035157;28;20673;-67
2021/12/10 04:26:14;;;;;;;26.35;13.55;;;;;;;;;;5053865;28;20045;-67
2021/12/10 04:28:40;;;;;;;24.63;15.15;;;;;;;;;;5053637;28;20118;-67
2021/12/10 04:31:06;;;;;;;28.85;14.85;;;;;;;;;;5053123;28;20033;-67
2021/12/10 04:33:32;;;;;;;24.05;13.48;;;;;;;;;;5035702;28;20072;-67
2021/12/10 04:36:00;;;;;;;24.88;14.82;;;;;;;;;;5053306;28;20045;-67
2021/12/10 04:38:27;;;;;;;21.80;13.68;;;;;;;;;;5052889;28;20036;-67
2021/12/10 04:40:56;;;;;;;25.52;14.30;;;;;;;;;;5053744;28;20547;-67
2021/12/10 04:43:23;;;;;;;22.58;14.25;;;;;;;;;;5053643;28;20045;-67
2021/12/10 04:45:51;;;;;;;26.77;14.13;;;;;;;;;;5034768;28;20539;-67
2021/12/10 04:48:17;;;;;;;22.92;13.20;;;;;;;;;;5035696;28;20049;-67
2021/12/10 04:50:43;;;;;;;28.98;13.77;;;;;;;;;;5035496;28;20375;-67
2021/12/10 04:53:10;;;;;;;23.13;12.18;;;;;;;;;;5052136;28;20041;-67
2021/12/10 04:55:36;;;;;;;20.67;12.80;;;;;;;;;;5035447;28;20127;-67
2021/12/10 04:58:03;;;;;;;23.23;13.30;;;;;;;;;;5035215;28;20045;-67
2021/12/10 05:00:30;;;;;;;22.55;12.80;;;;;;;;;;5034872;28;20426;-67
2021/12/10 05:02:59;;;;;;;27.27;14.23;;;;;;;;;;5035403;28;20033;-67
2021/12/10 05:05:25;;;;;;;24.95;12.57;;;;;;;;;;5052919;28;20045;-67
2021/12/10 05:07:52;;;;;;;26.27;13.45;;;;;;;;;;5052357;28;20443;-67
2021/12/10 05:10:19;;;;;;;24.73;14.93;;;;;;;;;;5052967;28;20045;-67
2021/12/10 05:12:46;;;;;;;25.20;13.63;;;;;;;;;;5034848;28;20037;-67
2021/12/10 05:15:14;;;;;;;24.08;14.05;;;;;;;;;;5034216;28;20045;-67
2021/12/10 05:17:41;;;;;;;24.30;14.27;;;;;;;;;;5052585;28;20036;-67
2021/12/10 05:20:18;;;;;;;27.23;14.02;;;;;;;;;;5052597;28;20631;-67
2021/12/10 05:22:45;;;;;;;23.25;13.48;;;;;;;;;;5051807;28;20052;-67
2021/12/10 05:25:11;;;;;;;23.48;13.88;;;;;;;;;;5051102;28;20157;-67
2021/12/10 05:27:38;;;;;;;22.40;14.00;;;;;;;;;;5018301;28;20048;-67
2021/12/10 05:30:05;;;;;;;25.35;14.60;;;;;;;;;;5033921;28;20056;-67
2021/12/10 05:32:31;;;;;;;25.50;14.65;;;;;;;;;;5052530;28;20519;-67
2021/12/10 05:34:57;;;;;;;26.33;14.45;;;;;;;;;;5034443;28;20106;-67
2021/12/10 05:37:24;;;;;;;24.45;13.43;;;;;;;;;;5033759;28;20063;-67
2021/12/10 05:39:50;;;;;;;27.88;15.23;;;;;;;;;;5034387;28;20052;-67
2021/12/10 05:42:16;;;;;;;23.30;14.40;;;;;;;;;;5052420;28;20041;-67
2021/12/10 05:44:42;;;;;;;24.65;14.30;;;;;;;;;;5033664;28;20045;-67
2021/12/10 05:47:08;;;;;;;23.13;14.57;;;;;;;;;;5017796;28;20037;-67
2021/12/10 05:49:35;;;;;;;28.13;14.43;;;;;;;;;;5052442;28;20106;-67
2021/12/10 05:52:03;;;;;;;23.35;13.50;;;;;;;;;;5033494;28;20124;-67
2021/12/10 05:54:29;;;;;;;22.17;13.18;;;;;;;;;;5052080;28;20045;-67
2021/12/10 05:56:55;;;;;;;23.77;13.38;;;;;;;;;;5052156;28;20114;-67
2021/12/10 05:59:21;;;;;;;19.35;12.55;;;;;;;;;;5033476;28;20040;-67
2021/12/10 06:01:47;;;;;;;21.90;12.98;;;;;;;;;;5051811;28;20045;-67
2021/12/10 06:04:13;;;;;;;22.88;12.32;;;;;;;;;;5033233;28;20384;-67
2021/12/10 06:06:39;;;;;;;20.23;12.57;;;;;;;;;;5051463;28;20048;-67
2021/12/10 06:09:07;;;;;;;19.63;12.55;;;;;;;;;;5051732;28;20049;-67
2021/12/10 06:11:34;;;;;;;17.67;11.80;;;;;;;;;;5051839;28;20045;-67
2021/12/10 06:14:00;;;;;;;20.05;12.50;;;;;;;;;;5033467;28;20044;-67
2021/12/10 06:16:26;;;;;;;19.75;11.20;;;;;;;;;;5051518;28;20072;-67
2021/12/10 06:18:52;;;;;;;19.45;11.60;;;;;;;;;;5051434;28;20071;-67
2021/12/10 06:21:18;;;;;;;21.48;11.20;;;;;;;;;;5051826;28;20082;-67
2021/12/10 06:23:45;;;;;;;15.45;10.98;;;;;;;;;;5050619;28;20048;-67
2021/12/10 06:26:11;;;;;;;20.80;11.60;;;;;;;;;;5051323;28;20502;-67
2021/12/10 06:28:37;;;;;;;18.92;11.27;;;;;;;;;;5033719;28;20041;-67
2021/12/10 06:31:04;;;;;;;16.95;11.07;;;;;;;;;;5050920;28;20478;-67
2021/12/10 06:33:31;;;;;;;19.52;10.98;;;;;;;;;;5051168;28;20041;-67
2021/12/10 06:36:03;;;;;;;19.52;10.18;;;;;;;;;;5051261;28;20049;-67
2021/12/10 06:38:30;;;;;;;15.63;9.82;;;;;;;;;;5033058;28;20103;-67
2021/12/10 06:40:56;;;;;;;16.08;10.18;;;;;;;;;;5051291;28;20044;-67
2021/12/10 06:43:23;;;;;;;18.95;10.30;;;;;;;;;;5033414;28;20033;-67
2021/12/10 06:45:51;;;;;;;17.75;10.25;;;;;;;;;;5050607;28;20110;-67
2021/12/10 06:48:18;;;;;;;19.15;10.48;;;;;;;;;;5051529;28;20055;-67
2021/12/10 06:50:46;;;;;;;15.80;9.55;;;;;;;;;;5033483;28;20050;-67
2021/12/10 06:53:12;;;;;;;16.63;11.07;;;;;;;;;;5050735;28;20040;-67
2021/12/10 06:55:38;;;;;;;15.20;10.18;;;;;;;;;;5051016;28;20045;-67
2021/12/10 06:58:05;;;;;;;16.17;10.25;;;;;;;;;;5033160;28;20144;-67
2021/12/10 07:00:40;;;;;;;18.35;10.57;;;;;;;;;;5050696;28;20044;-67
2021/12/10 07:03:06;;;;;;;16.90;10.50;;;;;;;;;;5051263;28;20045;-67
2021/12/10 07:05:32;;;;;;;15.50;10.73;;;;;;;;;;5051041;28;20041;-67
2021/12/10 07:07:58;;;;;;;15.25;10.07;;;;;;;;;;5032547;28;20077;-67
2021/12/10 07:10:25;;;;;;;14.75;9.70;;;;;;;;;;5051210;28;20861;-67
2021/12/10 07:12:51;;;;;;;17.08;10.80;;;;;;;;;;5050861;28;20103;-67
2021/12/10 07:15:18;;;;;;;16.17;9.68;;;;;;;;;;5051777;28;20084;-67
2021/12/10 07:17:46;;;;;;;17.10;9.55;;;;;;;;;;5036922;28;20619;-67
2021/12/10 07:20:14;;;;;;;16.80;8.95;;;;;;;;;;5037287;28;20471;-67
2021/12/10 07:22:41;;;;;;;15.65;9.48;;;;;;;;;;5036873;28;20060;-66
2021/12/10 07:25:07;;;;;;;13.63;8.95;;;;;;;;;;5074981;28;20075;-66
2021/12/10 07:27:34;;;;;;;17.15;8.63;;;;;;;;;;5054725;28;20072;-64
2021/12/10 07:30:00;;;;;;;16.33;9.50;;;;;;;;;;5053777;28;20056;-63
2021/12/10 07:32:26;;;;;;;16.52;9.48;;;;;;;;;;5054280;28;20064;-65
2021/12/10 07:34:52;;;;;;;14.93;9.07;;;;;;;;;;5053727;28;20048;-68
2021/12/10 07:37:18;;;;;;;14.20;8.93;;;;;;;;;;5015272;28;20488;-64
2021/12/10 07:39:44;;;;;;;19.05;8.75;;;;;;;;;;5042557;28;20116;-65
2021/12/10 07:42:11;;;;;;;15.18;8.70;;;;;;;;;;5053811;28;20041;-69
2021/12/10 07:44:38;;;;;;;14.02;8.68;;;;;;;;;;5052278;28;20036;-68
2021/12/10 07:47:08;;;;;;;13.73;8.57;;;;;;;;;;5052696;28;20055;-68
2021/12/10 07:49:34;;;;;;;15.98;9.43;;;;;;;;;;5052492;28;20048;-66
2021/12/10 07:52:01;;;;;;;14.82;8.25;;;;;;;;;;5052344;28;20175;-64
2021/12/10 07:54:27;;;;;;;14.93;8.25;;;;;;;;;;5052706;28;20049;-65
2021/12/10 07:56:54;;;;;;;13.32;8.88;;;;;;;;;;5051022;28;20610;-66
2021/12/10 07:59:20;;;;;;;16.60;8.20;;;;;;;;;;5048345;28;20033;-67
2021/12/10 08:01:46;;;;;;;14.50;8.50;;;;;;;;;;5047127;28;20041;-67
2021/12/10 08:04:12;;;;;;;12.80;7.32;;;;;;;;;;5053324;28;20059;-69
2021/12/10 08:06:38;;;;;;;12.85;8.43;;;;;;;;;;5052106;28;20479;-69
2021/12/10 08:09:06;;;;;;;14.15;7.80;;;;;;;;;;5052229;28;20049;-66
2021/12/10 08:11:32;;;;;;;13.02;8.35;;;;;;;;;;5052575;28;20052;-66
2021/12/10 08:13:58;;;;;;;14.48;8.02;;;;;;;;;;5052250;28;20044;-66
2021/12/10 08:16:25;;;;;;;11.65;7.80;;;;;;;;;;5052107;28;20458;-65
2021/12/10 08:18:52;;;;;;;14.65;8.18;;;;;;;;;;5052247;28;20071;-65
2021/12/10 08:21:18;;;;;;;14.35;7.20;;;;;;;;;;5051944;28;20055;-65
2021/12/10 08:23:44;;;;;;;15.63;7.97;;;;;;;;;;5052193;28;20522;-67
2021/12/10 08:26:12;;;;;;;14.45;7.53;;;;;;;;;;5052140;28;20118;-67
2021/12/10 08:28:40;;;;;;;16.75;7.32;;;;;;;;;;5049695;28;20043;-67
2021/12/10 08:31:06;;;;;;;14.88;8.10;;;;;;;;;;5052153;28;20056;-66
2021/12/10 08:33:32;;;;;;;12.07;7.03;;;;;;;;;;5053835;28;20033;-67
2021/12/10 08:36:03;;;;;;;10.88;6.45;;;;;;;;;;5051446;28;20048;-67
2021/12/10 08:38:30;;;;;;;14.23;6.85;;;;;;;;;;5052338;28;20078;-67
2021/12/10 08:41:01;;;;;;;13.32;7.25;;;;;;;;;;5052434;28;20615;-68
2021/12/10 08:43:29;;;;;;;14.60;6.93;;;;;;;;;;5051410;28;20095;-67
2021/12/10 08:45:55;;;;;;;13.07;7.72;;;;;;;;;;5051177;28;20363;-68
2021/12/10 08:48:23;;;;;;;13.27;7.00;;;;;;;;;;5035012;28;20036;-68
2021/12/10 08:50:49;;;;;;;16.67;7.60;;;;;;;;;;5050156;28;20078;-67
2021/12/10 08:53:15;;;;;;;15.70;7.35;;;;;;;;;;5050611;28;20051;-67
2021/12/10 08:55:46;;;;;;;13.45;7.28;;;;;;;;;;5049847;28;20041;-67
2021/12/10 08:58:13;;;;;;;13.35;7.07;;;;;;;;;;5050935;28;20133;-65
2021/12/10 09:00:41;;;;;;;13.43;6.72;;;;;;;;;;5052090;28;20040;-66
2021/12/10 09:03:08;;;;;;;13.45;6.82;;;;;;;;;;5052008;28;20411;-67
2021/12/10 09:05:35;;;;;;;13.45;6.95;;;;;;;;;;5050397;28;20083;-68
2021/12/10 09:08:01;;;;;;;13.68;6.68;;;;;;;;;;5049228;28;20515;-66
2021/12/10 09:10:31;;;;;;;14.88;6.68;;;;;;;;;;5051123;28;20043;-68
2021/12/10 09:12:57;;;;;;;17.90;7.35;;;;;;;;;;5049821;28;20048;-67
2021/12/10 09:15:25;;;;;;;12.68;6.07;;;;;;;;;;5051776;28;20372;-68
2021/12/10 09:17:52;;;;;;;10.68;6.63;;;;;;;;;;5051774;28;20464;-67
2021/12/10 09:20:26;;;;;;;13.57;6.55;;;;;;;;;;5050141;28;20049;-66
2021/12/10 09:22:53;;;;;;;12.48;5.97;;;;;;;;;;5051316;28;20122;-67
2021/12/10 09:25:19;;;;;;;14.73;6.72;;;;;;;;;;5053008;28;20052;-67
2021/12/10 09:27:45;;;;;;;9.65;5.80;;;;;;;;;;5050841;28;20041;-68
2021/12/10 09:30:13;;;;;;;12.68;6.53;;;;;;;;;;5051085;28;20041;-67
2021/12/10 09:32:40;;;;;;;11.77;6.57;;;;;;;;;;5051920;28;20045;-67
2021/12/10 09:35:07;;;;;;;11.32;6.38;;;;;;;;;;5050920;28;20706;-67
2021/12/10 09:37:34;;;;;;;12.38;6.65;;;;;;;;;;5051634;28;20033;-66
2021/12/10 09:40:00;;;;;;;11.48;6.53;;;;;;;;;;5050399;28;20040;-66
2021/12/10 09:42:27;;;;;;;13.57;6.40;;;;;;;;;;5050903;28;20118;-67
2021/12/10 09:44:54;;;;;;;9.10;5.97;;;;;;;;;;5050787;28;20055;-66
2021/12/10 09:47:20;;;;;;;11.88;6.38;;;;;;;;;;5053098;28;20056;-67
2021/12/10 09:49:48;;;;;;;12.65;6.10;;;;;;;;;;5055104;28;20758;-66
2021/12/10 09:52:17;;;;;;;13.25;6.25;;;;;;;;;;5051806;28;20044;-67
2021/12/10 09:54:43;;;;;;;9.88;6.03;;;;;;;;;;5051589;28;20098;-66
2021/12/10 09:57:11;;;;;;;10.85;5.88;;;;;;;;;;5051847;28;20112;-66
2021/12/10 09:59:38;;;;;;;11.15;5.82;;;;;;;;;;5052114;28;20044;-67
2021/12/10 10:02:06;;;;;;;10.05;5.35;;;;;;;;;;5030686;28;20719;-67
2021/12/10 10:04:35;;;;;;;11.77;6.32;;;;;;;;;;5050541;28;20068;-67
2021/12/10 10:07:13;;;;;;;12.45;6.40;;;;;;;;;;5051496;28;20063;-67
2021/12/10 10:09:41;;;;;;;12.82;6.22;;;;;;;;;;5047776;28;20056;-66
2021/12/10 10:12:10;;;;;;;9.80;5.72;;;;;;;;;;5049133;28;20057;-67
2021/12/10 10:14:38;;;;;;;8.77;5.82;;;;;;;;;;5050521;28;20044;-67
2021/12/10 10:17:04;;;;;;;10.82;6.05;;;;;;;;;;5050673;28;20068;-66
2021/12/10 10:19:30;;;;;;;8.75;5.55;;;;;;;;;;5032920;28;20048;-67
2021/12/10 10:21:57;;;;;;;9.32;5.68;;;;;;;;;;5048184;28;20044;-69
2021/12/10 10:24:26;;;;;;;11.05;5.45;;;;;;;;;;5050245;28;20068;-66
2021/12/10 10:26:56;;;;;;;10.65;5.90;;;;;;;;;;5049669;28;20037;-68
2021/12/10 10:29:25;;;;;;;11.25;6.00;;;;;;;;;;5049214;28;20505;-68
2021/12/10 10:31:54;;;;;;;7.88;4.93;;;;;;;;;;5049735;28;20041;-69
2021/12/10 10:34:20;;;;;;;8.52;5.53;;;;;;;;;;5031707;28;20224;-67
2021/12/10 10:36:47;;;;;;;11.85;5.63;;;;;;;;;;5051215;28;20132;-68
2021/12/10 10:39:14;;;;;;;11.38;5.32;;;;;;;;;;5032363;28;20041;-69
2021/12/10 10:41:41;;;;;;;9.77;5.35;;;;;;;;;;5049369;28;20392;-66
2021/12/10 10:44:07;;;;;;;11.60;5.00;;;;;;;;;;5050065;28;20098;-67
2021/12/10 10:46:35;;;;;;;11.43;4.72;;;;;;;;;;5050090;28;20064;-65
2021/12/10 10:49:01;;;;;;;10.05;5.22;;;;;;;;;;5050300;28;20033;-65
2021/12/10 10:51:31;;;;;;;12.63;5.70;;;;;;;;;;5049906;28;20041;-66
2021/12/10 10:53:59;;;;;;;9.27;5.03;;;;;;;;;;5050910;28;20045;-66
2021/12/10 10:56:27;;;;;;;9.50;5.32;;;;;;;;;;5050198;28;20033;-65
2021/12/10 10:58:56;;;;;;;9.85;4.82;;;;;;;;;;5050635;28;20052;-65
2021/12/10 11:01:26;;;;;;;14.45;6.05;;;;;;;;;;5050114;28;20094;-65
2021/12/10 11:03:57;;;;;;;12.88;6.80;;;;;;;;;;5032241;28;20084;-65
2021/12/10 11:06:30;;;;;;;14.27;6.38;;;;;;;;;;5031275;28;20422;-65
2021/12/10 11:09:04;;;;;;;10.60;5.93;;;;;;;;;;5041950;28;20075;-66
2021/12/10 11:11:35;;;;;;;10.23;5.45;;;;;;;;;;5049845;28;20537;-65
2021/12/10 11:14:06;;;;;;;9.57;5.07;;;;;;;;;;5050417;28;20036;-64
2021/12/10 11:16:33;;;;;;;10.35;4.60;;;;;;;;;;5050440;28;20044;-64
2021/12/10 11:19:11;;;;;;;8.02;4.30;;;;;;;;;;5049987;28;20055;-65
2021/12/10 11:21:37;;;;;;;10.80;4.90;;;;;;;;;;5050523;28;20044;-64
2021/12/10 11:24:08;;;;;;;8.27;4.32;;;;;;;;;;5050131;28;20071;-65
2021/12/10 11:26:44;;;;;;;7.88;4.68;;;;;;;;;;5049971;28;20045;-65
2021/12/10 11:29:31;;;;;;;7.30;3.95;;;;;;;;;;5050800;28;20033;-63
2021/12/10 11:32:01;;;;;;;7.22;4.20;;;;;;;;;;5036808;28;20059;-64
2021/12/10 11:34:47;;;;;;;9.63;3.88;;;;;;;;;;5049971;28;20045;-65
2021/12/10 11:37:14;;;;;;;9.95;4.53;;;;;;;;;;5050227;28;20499;-65
2021/12/10 11:39:46;;;;;;;12.07;4.20;;;;;;;;;;5050170;28;20473;-64
2021/12/10 11:42:57;;;;;;;8.48;3.90;;;;;;;;;;5050408;28;20037;-64
2021/12/10 11:45:32;;;;;;;7.15;3.83;;;;;;;;;;4969145;28;20050;-64
2021/12/10 11:48:12;;;;;;;8.93;4.35;;;;;;;;;;4968296;28;20046;-64
2021/12/10 11:50:47;;;;;;;6.38;3.80;;;;;;;;;;5023034;28;20091;-64
2021/12/10 11:53:15;;;;;;;8.63;3.70;;;;;;;;;;5050190;28;20067;-63
2021/12/10 11:56:05;;;;;;;6.78;3.88;;;;;;;;;;5031852;28;20056;-63
2021/12/10 11:58:31;;;;;;;8.20;3.88;;;;;;;;;;5039642;28;20120;-63
2021/12/10 12:00:57;;;;;;;6.40;3.88;;;;;;;;;;5050285;28;20391;-66
2021/12/10 12:03:30;;;;;;;8.68;4.05;;;;;;;;;;5051995;28;20033;-64
2021/12/10 12:05:56;;;;;;;6.85;3.17;;;;;;;;;;5053933;28;20048;-64
2021/12/10 12:08:24;;;;;;;4.55;3.17;;;;;;;;;;5034866;28;20124;-63
2021/12/10 12:11:01;;;;;;;8.85;3.25;;;;;;;;;;5052344;28;20045;-64
2021/12/10 12:13:38;;;;;;;6.38;3.63;;;;;;;;;;5015906;28;20049;-65
2021/12/10 12:16:04;;;;;;;6.15;3.13;;;;;;;;;;5044977;28;20037;-64
2021/12/10 12:18:31;;;;;;;4.25;2.80;;;;;;;;;;5053046;28;20585;-65
2021/12/10 12:20:59;;;;;;;8.85;3.45;;;;;;;;;;5053777;28;20099;-65
2021/12/10 12:26:13;;;;;;;6.07;3.13;;;;;;;;;;5052946;28;20636;-64
2021/12/10 12:28:59;;;;;;;7.18;2.90;;;;;;;;;;5019347;28;20045;-63
2021/12/10 12:31:27;;;;;;;6.22;2.92;;;;;;;;;;5038484;28;20044;-64
2021/12/10 12:33:59;;;;;;;8.88;3.00;;;;;;;;;;5052615;28;20041;-64
2021/12/10 12:36:28;;;;;;;6.53;3.00;;;;;;;;;;5053233;28;20037;-64
2021/12/10 12:38:54;;;;;;;4.85;2.72;;;;;;;;;;5044273;28;20744;-63
2021/12/10 12:41:31;;;;;;;5.05;2.67;;;;;;;;;;5053035;28;20475;-63
2021/12/10 12:44:12;;;;;;;7.47;3.30;;;;;;;;;;5053105;28;20102;-62
2021/12/10 12:47:14;;;;;;;7.78;3.00;;;;;;;;;;5052223;28;20044;-63
2021/12/10 12:49:48;;;;;;;7.90;2.90;;;;;;;;;;4971248;28;20043;-63
2021/12/10 12:52:16;;;;;;;6.28;3.13;;;;;;;;;;5035996;28;20048;-63
2021/12/10 12:55:05;;;;;;;6.43;3.00;;;;;;;;;;5052414;28;20480;-62
2021/12/10 12:57:50;;;;;;;9.60;3.05;;;;;;;;;;5028584;28;20044;-62
2021/12/10 13:00:22;;;;;;;6.47;2.95;;;;;;;;;;5049832;28;20044;-63
2021/12/10 13:02:51;;;;;;;6.63;2.97;;;;;;;;;;5051978;28;20648;-63
2021/12/10 13:05:17;;;;;;;8.43;3.00;;;;;;;;;;5033084;28;20080;-63
2021/12/10 13:07:43;;;;;;;6.82;2.80;;;;;;;;;;5039813;28;20127;-64
2021/12/10 13:10:19;;;;;;;6.03;2.85;;;;;;;;;;5052357;28;20475;-63
2021/12/10 13:12:48;;;;;;;5.88;2.72;;;;;;;;;;5052124;28;20667;-63
2021/12/10 13:15:22;;;;;;;7.75;3.00;;;;;;;;;;5052457;28;20899;-63
2021/12/10 13:17:56;;;;;;;5.65;2.60;;;;;;;;;;5052204;28;20090;-62
2021/12/10 13:20:24;;;;;;;8.23;2.63;;;;;;;;;;5052814;28;20112;-64
2021/12/10 13:22:52;;;;;;;9.75;2.90;;;;;;;;;;5052629;28;20077;-63
2021/12/10 13:25:19;;;;;;;6.43;2.85;;;;;;;;;;5051473;28;20048;-63
2021/12/10 13:27:46;;;;;;;5.30;2.78;;;;;;;;;;5034458;28;20045;-63
2021/12/10 13:30:15;;;;;;;11.15;2.55;;;;;;;;;;5052353;28;20037;-63
2021/12/10 13:32:42;;;;;;;5.93;2.70;;;;;;;;;;5051808;28;20037;-64
2021/12/10 13:35:10;;;;;;;6.38;2.85;;;;;;;;;;5052370;28;20045;-64
2021/12/10 13:37:36;;;;;;;4.43;2.50;;;;;;;;;;5052437;28;20373;-64
2021/12/10 13:40:04;;;;;;;6.20;2.60;;;;;;;;;;5051625;28;20051;-65
2021/12/10 13:42:30;;;;;;;5.38;2.67;;;;;;;;;;5052287;28;20367;-64
2021/12/10 13:44:56;;;;;;;5.63;2.80;;;;;;;;;;5052266;28;20442;-63
2021/12/10 13:47:22;;;;;;;5.45;2.60;;;;;;;;;;5051599;28;20075;-62
2021/12/10 13:49:54;;;;;;;9.18;2.80;;;;;;;;;;5052216;28;20119;-63
2021/12/10 13:52:55;;;;;;;5.25;2.38;;;;;;;;;;5051931;28;20079;-64
2021/12/10 13:55:29;;;;;;;7.22;2.58;;;;;;;;;;4970170;28;20657;-64
2021/12/10 13:58:18;;;;;;;9.02;2.65;;;;;;;;;;5039788;28;20138;-65
2021/12/10 14:00:51;;;;;;;8.40;3.75;;;;;;;;;;5051393;28;20049;-64
2021/12/10 14:03:35;;;;;;;4.95;2.28;;;;;;;;;;5033758;28;20549;-64
2021/12/10 14:06:01;;;;;;;6.32;2.78;;;;;;;;;;5051722;28;20116;-65
2021/12/10 14:08:27;;;;;;;5.10;2.50;;;;;;;;;;5051224;28;20048;-65
2021/12/10 14:11:02;;;;;;;7.18;3.15;;;;;;;;;;5052187;28;20045;-63
2021/12/10 14:13:32;;;;;;;10.10;3.15;;;;;;;;;;5051056;28;20483;-64
2021/12/10 14:16:06;;;;;;;4.50;2.63;;;;;;;;;;5051212;28;20072;-64
2021/12/10 14:18:44;;;;;;;7.70;3.35;;;;;;;;;;5051651;28;20033;-66
2021/12/10 14:21:15;;;;;;;6.60;3.20;;;;;;;;;;5017127;28;20621;-65
2021/12/10 14:23:46;;;;;;;6.40;2.95;;;;;;;;;;5018423;28;20079;-65
2021/12/10 14:26:20;;;;;;;7.45;3.38;;;;;;;;;;5032943;28;20115;-64
2021/12/10 14:28:48;;;;;;;9.63;3.17;;;;;;;;;;5050994;28;20037;-66
2021/12/10 14:31:22;;;;;;;9.65;3.42;;;;;;;;;;5031135;28;20048;-64
2021/12/10 14:33:50;;;;;;;5.57;2.88;;;;;;;;;;5051350;28;20075;-64
2021/12/10 14:36:18;;;;;;;9.13;3.58;;;;;;;;;;5051201;28;20047;-64
2021/12/10 14:38:47;;;;;;;8.20;3.75;;;;;;;;;;5050364;28;20120;-62
2021/12/10 14:41:19;;;;;;;10.52;3.63;;;;;;;;;;5051190;28;20052;-64
2021/12/10 14:43:50;;;;;;;6.13;4.15;;;;;;;;;;5050877;28;20065;-64
2021/12/10 14:46:16;;;;;;;6.70;3.22;;;;;;;;;;5032700;28;20052;-66
2021/12/10 14:49:01;;;;;;;7.28;3.28;;;;;;;;;;5051191;28;20434;-66